sensor_id;sensor_type;location;lat;lon;timestamp;P1;durP1;ratioP1;P2;durP2;ratioP2
18693;SDS011;9477;51.414;10.362;2022-08-01T00:01:40;3.13;;;2.43;;
18693;SDS011;9477;51.414;10.362;2022-08-01T00:03:43;3.07;;;2.50;;
18693;SDS011;9477;51.414;10.362;2022-08-01T00:05:45;2.60;;;2.40;;
18693;SDS011;9477;51.414;10.362;2022-08-01T00:07:49;2.80;;;2.60;;
18693;SDS011;9477;51.414;10.362;2022-08-01T00:09:52;2.40;;;2.17;;
18693;SDS011;9477;51.414;10.362;2022-08-01T00:11:55;2.60;;;2.40;;
18693;SDS011;9477;51.414;10.362;2022-08-01T00:14:00;3.03;;;2.57;;
18693;SDS011;9477;51.414;10.362;2022-08-01T00:16:03;2.37;;;2.17;;
18693;SDS011;9477;51.414;10.362;2022-08-01T00:18:07;2.37;;;2.17;;
18693;SDS011;9477;51.414;10.362;2022-08-01T00:20:11;2.33;;;1.83;;
18693;SDS011;9477;51.414;10.362;2022-08-01T00:22:15;2.80;;;2.20;;
18693;SDS011;9477;51.414;10.362;2022-08-01T00:24:18;2.37;;;2.13;;
18693;SDS011;9477;51.414;10.362;2022-08-01T00:26:21;3.27;;;2.23;;
18693;SDS011;9477;51.414;10.362;2022-08-01T00:28:24;2.57;;;2.20;;
18693;SDS011;9477;51.414;10.362;2022-08-01T00:30:26;2.87;;;2.37;;
18693;SDS011;9477;51.414;10.362;2022-08-01T00:32:29;3.00;;;2.37;;
18693;SDS011;9477;51.414;10.362;2022-08-01T00:34:34;3.20;;;2.60;;
18693;SDS011;9477;51.414;10.362;2022-08-01T00:36:36;2.10;;;2.00;;
18693;SDS011;9477;51.414;10.362;2022-08-01T00:38:39;5.27;;;2.60;;
18693;SDS011;9477;51.414;10.362;2022-08-01T00:40:42;4.33;;;2.40;;
18693;SDS011;9477;51.414;10.362;2022-08-01T00:42:45;3.53;;;2.90;;
18693;SDS011;9477;51.414;10.362;2022-08-01T00:44:48;3.30;;;2.90;;
18693;SDS011;9477;51.414;10.362;2022-08-01T00:46:50;2.87;;;2.47;;
18693;SDS011;9477;51.414;10.362;2022-08-01T00:48:53;5.47;;;2.67;;
18693;SDS011;9477;51.414;10.362;2022-08-01T00:50:58;3.47;;;3.13;;
18693;SDS011;9477;51.414;10.362;2022-08-01T00:53:01;3.70;;;2.70;;
18693;SDS011;9477;51.414;10.362;2022-08-01T00:55:04;3.10;;;2.73;;
18693;SDS011;9477;51.414;10.362;2022-08-01T00:57:07;4.37;;;2.80;;
18693;SDS011;9477;51.414;10.362;2022-08-01T00:59:11;4.47;;;3.00;;
18693;SDS011;9477;51.414;10.362;2022-08-01T01:01:16;3.90;;;2.90;;
18693;SDS011;9477;51.414;10.362;2022-08-01T01:03:20;3.27;;;2.93;;
18693;SDS011;9477;51.414;10.362;2022-08-01T01:05:45;3.53;;;3.23;;
18693;SDS011;9477;51.414;10.362;2022-08-01T01:07:58;5.60;;;3.80;;
18693;SDS011;9477;51.414;10.362;2022-08-01T01:10:07;3.60;;;3.17;;
18693;SDS011;9477;51.414;10.362;2022-08-01T01:12:19;4.97;;;3.27;;
18693;SDS011;9477;51.414;10.362;2022-08-01T01:14:31;4.00;;;3.60;;
18693;SDS011;9477;51.414;10.362;2022-08-01T01:16:38;3.43;;;3.13;;
18693;SDS011;9477;51.414;10.362;2022-08-01T01:18:45;3.77;;;3.37;;
18693;SDS011;9477;51.414;10.362;2022-08-01T01:20:52;4.20;;;3.30;;
18693;SDS011;9477;51.414;10.362;2022-08-01T01:23:12;4.40;;;3.30;;
18693;SDS011;9477;51.414;10.362;2022-08-01T01:25:28;3.50;;;3.20;;
18693;SDS011;9477;51.414;10.362;2022-08-01T01:27:45;4.03;;;3.50;;
18693;SDS011;9477;51.414;10.362;2022-08-01T01:29:55;4.77;;;3.47;;
18693;SDS011;9477;51.414;10.362;2022-08-01T01:32:02;4.37;;;3.80;;
18693;SDS011;9477;51.414;10.362;2022-08-01T01:34:09;4.40;;;3.70;;
18693;SDS011;9477;51.414;10.362;2022-08-01T01:36:14;3.53;;;3.23;;
18693;SDS011;9477;51.414;10.362;2022-08-01T01:38:21;4.30;;;3.63;;
18693;SDS011;9477;51.414;10.362;2022-08-01T01:40:26;5.23;;;3.40;;
18693;SDS011;9477;51.414;10.362;2022-08-01T01:42:31;3.60;;;3.30;;
18693;SDS011;9477;51.414;10.362;2022-08-01T01:44:35;4.47;;;4.00;;
18693;SDS011;9477;51.414;10.362;2022-08-01T01:46:41;3.23;;;3.00;;
18693;SDS011;9477;51.414;10.362;2022-08-01T01:48:44;4.63;;;3.70;;
18693;SDS011;9477;51.414;10.362;2022-08-01T01:50:50;5.27;;;3.50;;
18693;SDS011;9477;51.414;10.362;2022-08-01T01:52:54;5.10;;;3.77;;
18693;SDS011;9477;51.414;10.362;2022-08-01T01:54:59;7.57;;;3.30;;
18693;SDS011;9477;51.414;10.362;2022-08-01T01:57:04;3.77;;;3.10;;
18693;SDS011;9477;51.414;10.362;2022-08-01T01:59:08;3.30;;;2.63;;
18693;SDS011;9477;51.414;10.362;2022-08-01T02:01:11;6.43;;;2.80;;
18693;SDS011;9477;51.414;10.362;2022-08-01T02:03:16;2.97;;;2.70;;
18693;SDS011;9477;51.414;10.362;2022-08-01T02:05:20;4.27;;;2.60;;
18693;SDS011;9477;51.414;10.362;2022-08-01T02:07:24;2.67;;;2.47;;
18693;SDS011;9477;51.414;10.362;2022-08-01T02:09:29;1.80;;;1.70;;
18693;SDS011;9477;51.414;10.362;2022-08-01T02:11:33;1.50;;;1.40;;
18693;SDS011;9477;51.414;10.362;2022-08-01T02:13:58;1.30;;;1.20;;
18693;SDS011;9477;51.414;10.362;2022-08-01T02:16:03;1.57;;;1.40;;
18693;SDS011;9477;51.414;10.362;2022-08-01T02:18:07;1.87;;;1.20;;
18693;SDS011;9477;51.414;10.362;2022-08-01T02:20:14;1.90;;;1.80;;
18693;SDS011;9477;51.414;10.362;2022-08-01T02:22:18;3.07;;;2.57;;
18693;SDS011;9477;51.414;10.362;2022-08-01T02:24:28;3.60;;;3.13;;
18693;SDS011;9477;51.414;10.362;2022-08-01T02:26:38;5.63;;;3.60;;
18693;SDS011;9477;51.414;10.362;2022-08-01T02:28:45;4.70;;;4.00;;
18693;SDS011;9477;51.414;10.362;2022-08-01T02:30:50;5.27;;;4.33;;
18693;SDS011;9477;51.414;10.362;2022-08-01T02:32:53;5.87;;;4.20;;
18693;SDS011;9477;51.414;10.362;2022-08-01T02:35:03;5.33;;;4.50;;
18693;SDS011;9477;51.414;10.362;2022-08-01T02:37:11;8.67;;;4.80;;
18693;SDS011;9477;51.414;10.362;2022-08-01T02:39:14;6.30;;;4.83;;
18693;SDS011;9477;51.414;10.362;2022-08-01T02:41:21;5.83;;;4.70;;
18693;SDS011;9477;51.414;10.362;2022-08-01T02:43:26;7.80;;;4.27;;
18693;SDS011;9477;51.414;10.362;2022-08-01T02:45:32;7.77;;;4.93;;
18693;SDS011;9477;51.414;10.362;2022-08-01T02:47:37;6.30;;;4.83;;
18693;SDS011;9477;51.414;10.362;2022-08-01T02:49:43;6.97;;;4.70;;
18693;SDS011;9477;51.414;10.362;2022-08-01T02:51:54;8.27;;;4.80;;
18693;SDS011;9477;51.414;10.362;2022-08-01T02:53:59;7.50;;;5.53;;
18693;SDS011;9477;51.414;10.362;2022-08-01T02:56:04;7.60;;;5.00;;
18693;SDS011;9477;51.414;10.362;2022-08-01T02:58:08;8.80;;;5.57;;
18693;SDS011;9477;51.414;10.362;2022-08-01T03:00:13;6.63;;;5.40;;
18693;SDS011;9477;51.414;10.362;2022-08-01T03:02:17;7.03;;;4.90;;
18693;SDS011;9477;51.414;10.362;2022-08-01T03:04:22;7.53;;;5.27;;
18693;SDS011;9477;51.414;10.362;2022-08-01T03:06:25;7.63;;;5.23;;
18693;SDS011;9477;51.414;10.362;2022-08-01T03:08:30;8.63;;;5.30;;
18693;SDS011;9477;51.414;10.362;2022-08-01T03:10:36;9.30;;;5.67;;
18693;SDS011;9477;51.414;10.362;2022-08-01T03:12:40;7.17;;;5.47;;
18693;SDS011;9477;51.414;10.362;2022-08-01T03:14:45;6.20;;;5.60;;
18693;SDS011;9477;51.414;10.362;2022-08-01T03:16:51;8.40;;;6.93;;
18693;SDS011;9477;51.414;10.362;2022-08-01T03:18:56;6.83;;;5.70;;
18693;SDS011;9477;51.414;10.362;2022-08-01T03:21:00;7.20;;;6.43;;
18693;SDS011;9477;51.414;10.362;2022-08-01T03:23:06;8.87;;;6.00;;
18693;SDS011;9477;51.414;10.362;2022-08-01T03:25:10;9.50;;;6.13;;
18693;SDS011;9477;51.414;10.362;2022-08-01T03:27:17;8.40;;;6.80;;
18693;SDS011;9477;51.414;10.362;2022-08-01T03:29:21;9.30;;;6.50;;
18693;SDS011;9477;51.414;10.362;2022-08-01T03:31:27;9.93;;;6.50;;
18693;SDS011;9477;51.414;10.362;2022-08-01T03:33:31;9.40;;;6.57;;
18693;SDS011;9477;51.414;10.362;2022-08-01T03:35:36;7.97;;;6.37;;
18693;SDS011;9477;51.414;10.362;2022-08-01T03:37:44;7.93;;;6.00;;
18693;SDS011;9477;51.414;10.362;2022-08-01T03:40:10;7.27;;;5.70;;
18693;SDS011;9477;51.414;10.362;2022-08-01T03:42:24;7.67;;;5.80;;
18693;SDS011;9477;51.414;10.362;2022-08-01T03:44:31;9.83;;;6.20;;
18693;SDS011;9477;51.414;10.362;2022-08-01T03:46:40;9.97;;;6.80;;
18693;SDS011;9477;51.414;10.362;2022-08-01T03:48:47;5.67;;;5.07;;
18693;SDS011;9477;51.414;10.362;2022-08-01T03:50:52;5.37;;;4.00;;
18693;SDS011;9477;51.414;10.362;2022-08-01T03:52:57;7.13;;;4.67;;
18693;SDS011;9477;51.414;10.362;2022-08-01T03:55:04;3.73;;;3.30;;
18693;SDS011;9477;51.414;10.362;2022-08-01T03:57:09;3.03;;;2.40;;
18693;SDS011;9477;51.414;10.362;2022-08-01T03:59:34;3.27;;;2.27;;
18693;SDS011;9477;51.414;10.362;2022-08-01T04:01:38;1.70;;;1.60;;
18693;SDS011;9477;51.414;10.362;2022-08-01T04:03:42;2.13;;;1.50;;
18693;SDS011;9477;51.414;10.362;2022-08-01T04:05:45;2.33;;;1.60;;
18693;SDS011;9477;51.414;10.362;2022-08-01T04:07:48;3.13;;;1.70;;
18693;SDS011;9477;51.414;10.362;2022-08-01T04:09:56;2.87;;;1.97;;
18693;SDS011;9477;51.414;10.362;2022-08-01T04:11:59;2.70;;;1.50;;
18693;SDS011;9477;51.414;10.362;2022-08-01T04:14:12;3.07;;;1.80;;
18693;SDS011;9477;51.414;10.362;2022-08-01T04:16:16;1.77;;;1.50;;
18693;SDS011;9477;51.414;10.362;2022-08-01T04:18:19;2.07;;;1.87;;
18693;SDS011;9477;51.414;10.362;2022-08-01T04:20:22;2.77;;;1.80;;
18693;SDS011;9477;51.414;10.362;2022-08-01T04:22:25;3.33;;;2.03;;
18693;SDS011;9477;51.414;10.362;2022-08-01T04:24:28;2.10;;;1.90;;
18693;SDS011;9477;51.414;10.362;2022-08-01T04:26:34;1.83;;;1.70;;
18693;SDS011;9477;51.414;10.362;2022-08-01T04:28:38;3.20;;;1.77;;
18693;SDS011;9477;51.414;10.362;2022-08-01T04:30:44;2.93;;;2.10;;
18693;SDS011;9477;51.414;10.362;2022-08-01T04:32:51;2.07;;;1.80;;
18693;SDS011;9477;51.414;10.362;2022-08-01T04:34:56;2.33;;;1.60;;
18693;SDS011;9477;51.414;10.362;2022-08-01T04:37:00;3.23;;;2.00;;
18693;SDS011;9477;51.414;10.362;2022-08-01T04:39:04;2.63;;;2.27;;
18693;SDS011;9477;51.414;10.362;2022-08-01T04:41:07;2.40;;;2.20;;
18693;SDS011;9477;51.414;10.362;2022-08-01T04:43:14;3.50;;;2.00;;
18693;SDS011;9477;51.414;10.362;2022-08-01T04:45:17;2.80;;;2.50;;
18693;SDS011;9477;51.414;10.362;2022-08-01T04:47:20;2.40;;;2.20;;
18693;SDS011;9477;51.414;10.362;2022-08-01T04:49:26;3.80;;;2.37;;
18693;SDS011;9477;51.414;10.362;2022-08-01T04:51:29;2.50;;;2.30;;
18693;SDS011;9477;51.414;10.362;2022-08-01T04:53:32;3.83;;;2.90;;
18693;SDS011;9477;51.414;10.362;2022-08-01T04:55:35;3.97;;;2.90;;
18693;SDS011;9477;51.414;10.362;2022-08-01T04:57:39;2.80;;;2.60;;
18693;SDS011;9477;51.414;10.362;2022-08-01T04:59:44;3.30;;;2.50;;
18693;SDS011;9477;51.414;10.362;2022-08-01T05:01:48;3.70;;;3.20;;
18693;SDS011;9477;51.414;10.362;2022-08-01T05:03:51;4.23;;;2.70;;
18693;SDS011;9477;51.414;10.362;2022-08-01T05:05:55;3.43;;;2.63;;
18693;SDS011;9477;51.414;10.362;2022-08-01T05:07:58;4.20;;;3.10;;
18693;SDS011;9477;51.414;10.362;2022-08-01T05:10:02;4.63;;;3.20;;
18693;SDS011;9477;51.414;10.362;2022-08-01T05:12:06;4.53;;;3.00;;
18693;SDS011;9477;51.414;10.362;2022-08-01T05:14:11;3.97;;;2.97;;
18693;SDS011;9477;51.414;10.362;2022-08-01T05:16:14;3.00;;;2.70;;
18693;SDS011;9477;51.414;10.362;2022-08-01T05:18:18;3.90;;;3.27;;
18693;SDS011;9477;51.414;10.362;2022-08-01T05:20:28;4.63;;;3.13;;
18693;SDS011;9477;51.414;10.362;2022-08-01T05:22:32;3.33;;;2.93;;
18693;SDS011;9477;51.414;10.362;2022-08-01T05:24:36;4.17;;;3.20;;
18693;SDS011;9477;51.414;10.362;2022-08-01T05:26:40;3.90;;;2.90;;
18693;SDS011;9477;51.414;10.362;2022-08-01T05:28:44;4.43;;;2.80;;
18693;SDS011;9477;51.414;10.362;2022-08-01T05:30:47;4.43;;;3.30;;
18693;SDS011;9477;51.414;10.362;2022-08-01T05:32:50;3.73;;;2.90;;
18693;SDS011;9477;51.414;10.362;2022-08-01T05:34:53;3.77;;;3.17;;
18693;SDS011;9477;51.414;10.362;2022-08-01T05:36:55;4.10;;;3.37;;
18693;SDS011;9477;51.414;10.362;2022-08-01T05:39:00;5.23;;;4.10;;
18693;SDS011;9477;51.414;10.362;2022-08-01T05:41:02;4.40;;;3.53;;
18693;SDS011;9477;51.414;10.362;2022-08-01T05:43:05;3.77;;;3.37;;
18693;SDS011;9477;51.414;10.362;2022-08-01T05:45:08;5.00;;;3.93;;
18693;SDS011;9477;51.414;10.362;2022-08-01T05:47:12;5.77;;;3.93;;
18693;SDS011;9477;51.414;10.362;2022-08-01T05:49:15;4.23;;;3.83;;
18693;SDS011;9477;51.414;10.362;2022-08-01T05:51:18;4.37;;;3.97;;
18693;SDS011;9477;51.414;10.362;2022-08-01T05:53:21;4.07;;;3.67;;
18693;SDS011;9477;51.414;10.362;2022-08-01T05:55:25;4.20;;;3.77;;
18693;SDS011;9477;51.414;10.362;2022-08-01T05:57:28;4.30;;;3.90;;
18693;SDS011;9477;51.414;10.362;2022-08-01T05:59:31;6.30;;;4.70;;
18693;SDS011;9477;51.414;10.362;2022-08-01T06:01:34;3.30;;;2.97;;
18693;SDS011;9477;51.414;10.362;2022-08-01T06:03:36;4.23;;;3.50;;
18693;SDS011;9477;51.414;10.362;2022-08-01T06:05:39;3.40;;;3.10;;
18693;SDS011;9477;51.414;10.362;2022-08-01T06:07:42;3.20;;;2.87;;
18693;SDS011;9477;51.414;10.362;2022-08-01T06:09:45;4.70;;;3.20;;
18693;SDS011;9477;51.414;10.362;2022-08-01T06:11:49;3.80;;;3.17;;
18693;SDS011;9477;51.414;10.362;2022-08-01T06:13:52;4.77;;;3.63;;
18693;SDS011;9477;51.414;10.362;2022-08-01T06:15:55;4.43;;;3.60;;
18693;SDS011;9477;51.414;10.362;2022-08-01T06:17:58;4.83;;;3.70;;
18693;SDS011;9477;51.414;10.362;2022-08-01T06:20:02;3.90;;;3.40;;
18693;SDS011;9477;51.414;10.362;2022-08-01T06:22:05;4.13;;;3.13;;
18693;SDS011;9477;51.414;10.362;2022-08-01T06:24:08;6.37;;;3.07;;
18693;SDS011;9477;51.414;10.362;2022-08-01T06:26:11;4.87;;;3.10;;
18693;SDS011;9477;51.414;10.362;2022-08-01T06:28:15;3.73;;;2.77;;
18693;SDS011;9477;51.414;10.362;2022-08-01T06:30:18;3.10;;;2.20;;
18693;SDS011;9477;51.414;10.362;2022-08-01T06:32:21;5.23;;;2.67;;
18693;SDS011;9477;51.414;10.362;2022-08-01T06:34:27;2.90;;;2.43;;
18693;SDS011;9477;51.414;10.362;2022-08-01T06:36:30;3.53;;;1.90;;
18693;SDS011;9477;51.414;10.362;2022-08-01T06:38:33;2.97;;;2.00;;
18693;SDS011;9477;51.414;10.362;2022-08-01T06:40:35;2.50;;;2.30;;
18693;SDS011;9477;51.414;10.362;2022-08-01T06:42:39;1.90;;;1.80;;
18693;SDS011;9477;51.414;10.362;2022-08-01T06:44:43;1.77;;;1.50;;
18693;SDS011;9477;51.414;10.362;2022-08-01T06:46:46;2.53;;;2.10;;
18693;SDS011;9477;51.414;10.362;2022-08-01T06:48:49;3.23;;;2.23;;
18693;SDS011;9477;51.414;10.362;2022-08-01T06:50:51;6.90;;;2.43;;
18693;SDS011;9477;51.414;10.362;2022-08-01T06:53:09;2.43;;;2.23;;
18693;SDS011;9477;51.414;10.362;2022-08-01T06:55:12;3.50;;;2.00;;
18693;SDS011;9477;51.414;10.362;2022-08-01T06:57:14;3.03;;;2.70;;
18693;SDS011;9477;51.414;10.362;2022-08-01T06:59:17;4.27;;;2.40;;
18693;SDS011;9477;51.414;10.362;2022-08-01T07:01:21;5.60;;;2.60;;
18693;SDS011;9477;51.414;10.362;2022-08-01T07:03:24;4.17;;;2.10;;
18693;SDS011;9477;51.414;10.362;2022-08-01T07:05:47;3.57;;;1.80;;
18693;SDS011;9477;51.414;10.362;2022-08-01T07:07:50;2.80;;;2.17;;
18693;SDS011;9477;51.414;10.362;2022-08-01T07:09:53;1.77;;;1.60;;
18693;SDS011;9477;51.414;10.362;2022-08-01T07:11:55;4.30;;;1.60;;
18693;SDS011;9477;51.414;10.362;2022-08-01T07:13:58;1.63;;;1.40;;
18693;SDS011;9477;51.414;10.362;2022-08-01T07:16:02;2.70;;;1.50;;
18693;SDS011;9477;51.414;10.362;2022-08-01T07:18:06;1.63;;;1.50;;
18693;SDS011;9477;51.414;10.362;2022-08-01T07:20:10;1.83;;;1.70;;
18693;SDS011;9477;51.414;10.362;2022-08-01T07:22:16;1.97;;;1.50;;
18693;SDS011;9477;51.414;10.362;2022-08-01T07:24:23;3.30;;;1.73;;
18693;SDS011;9477;51.414;10.362;2022-08-01T07:26:28;2.73;;;1.50;;
18693;SDS011;9477;51.414;10.362;2022-08-01T07:28:31;1.70;;;1.50;;
18693;SDS011;9477;51.414;10.362;2022-08-01T07:30:34;3.80;;;1.40;;
18693;SDS011;9477;51.414;10.362;2022-08-01T07:32:37;1.50;;;1.40;;
18693;SDS011;9477;51.414;10.362;2022-08-01T07:34:41;1.17;;;1.10;;
18693;SDS011;9477;51.414;10.362;2022-08-01T07:36:45;2.60;;;1.20;;
18693;SDS011;9477;51.414;10.362;2022-08-01T07:38:48;2.97;;;1.43;;
18693;SDS011;9477;51.414;10.362;2022-08-01T07:40:51;1.33;;;1.23;;
18693;SDS011;9477;51.414;10.362;2022-08-01T07:42:53;1.60;;;1.20;;
18693;SDS011;9477;51.414;10.362;2022-08-01T07:44:56;1.40;;;1.27;;
18693;SDS011;9477;51.414;10.362;2022-08-01T07:46:59;2.43;;;1.27;;
18693;SDS011;9477;51.414;10.362;2022-08-01T07:49:02;1.23;;;1.10;;
18693;SDS011;9477;51.414;10.362;2022-08-01T07:51:06;2.93;;;1.30;;
18693;SDS011;9477;51.414;10.362;2022-08-01T07:53:09;3.63;;;1.10;;
18693;SDS011;9477;51.414;10.362;2022-08-01T07:55:12;2.10;;;1.30;;
18693;SDS011;9477;51.414;10.362;2022-08-01T07:57:16;1.20;;;1.10;;
18693;SDS011;9477;51.414;10.362;2022-08-01T07:59:19;0.87;;;0.87;;
18693;SDS011;9477;51.414;10.362;2022-08-01T08:01:26;2.10;;;1.00;;
18693;SDS011;9477;51.414;10.362;2022-08-01T08:03:29;0.83;;;0.83;;
18693;SDS011;9477;51.414;10.362;2022-08-01T08:05:32;1.23;;;0.90;;
18693;SDS011;9477;51.414;10.362;2022-08-01T08:07:57;1.33;;;0.97;;
18693;SDS011;9477;51.414;10.362;2022-08-01T08:10:00;0.90;;;0.90;;
18693;SDS011;9477;51.414;10.362;2022-08-01T08:12:04;2.57;;;1.00;;
18693;SDS011;9477;51.414;10.362;2022-08-01T08:14:08;1.33;;;1.00;;
18693;SDS011;9477;51.414;10.362;2022-08-01T08:16:11;3.43;;;1.03;;
18693;SDS011;9477;51.414;10.362;2022-08-01T08:18:13;1.00;;;1.00;;
18693;SDS011;9477;51.414;10.362;2022-08-01T08:20:16;1.87;;;0.90;;
18693;SDS011;9477;51.414;10.362;2022-08-01T08:22:19;4.00;;;1.33;;
18693;SDS011;9477;51.414;10.362;2022-08-01T08:24:24;5.87;;;3.87;;
18693;SDS011;9477;51.414;10.362;2022-08-01T08:26:27;1.10;;;1.10;;
18693;SDS011;9477;51.414;10.362;2022-08-01T08:28:30;2.93;;;1.20;;
18693;SDS011;9477;51.414;10.362;2022-08-01T08:30:33;9.60;;;1.13;;
18693;SDS011;9477;51.414;10.362;2022-08-01T08:32:36;1.27;;;1.17;;
18693;SDS011;9477;51.414;10.362;2022-08-01T08:34:39;3.13;;;1.13;;
18693;SDS011;9477;51.414;10.362;2022-08-01T08:36:41;2.60;;;1.10;;
18693;SDS011;9477;51.414;10.362;2022-08-01T08:38:48;1.30;;;1.20;;
18693;SDS011;9477;51.414;10.362;2022-08-01T08:40:52;1.00;;;1.00;;
18693;SDS011;9477;51.414;10.362;2022-08-01T08:42:56;1.00;;;1.00;;
18693;SDS011;9477;51.414;10.362;2022-08-01T08:45:02;5.13;;;1.60;;
18693;SDS011;9477;51.414;10.362;2022-08-01T08:47:05;1.17;;;1.10;;
18693;SDS011;9477;51.414;10.362;2022-08-01T08:49:09;2.83;;;1.00;;
18693;SDS011;9477;51.414;10.362;2022-08-01T08:51:13;4.47;;;1.10;;
18693;SDS011;9477;51.414;10.362;2022-08-01T08:53:21;1.43;;;1.00;;
18693;SDS011;9477;51.414;10.362;2022-08-01T08:55:24;1.57;;;1.03;;
18693;SDS011;9477;51.414;10.362;2022-08-01T08:57:29;1.37;;;1.20;;
18693;SDS011;9477;51.414;10.362;2022-08-01T08:59:32;1.13;;;1.03;;
18693;SDS011;9477;51.414;10.362;2022-08-01T09:01:35;1.70;;;1.00;;
18693;SDS011;9477;51.414;10.362;2022-08-01T09:03:38;2.43;;;1.10;;
18693;SDS011;9477;51.414;10.362;2022-08-01T09:05:42;1.90;;;1.10;;
18693;SDS011;9477;51.414;10.362;2022-08-01T09:07:45;1.40;;;1.20;;
18693;SDS011;9477;51.414;10.362;2022-08-01T09:09:48;0.93;;;0.90;;
18693;SDS011;9477;51.414;10.362;2022-08-01T09:11:53;2.67;;;0.87;;
18693;SDS011;9477;51.414;10.362;2022-08-01T09:16:25;0.50;;;0.50;;
18693;SDS011;9477;51.414;10.362;2022-08-01T09:18:29;0.60;;;0.60;;
18693;SDS011;9477;51.414;10.362;2022-08-01T09:20:34;4.70;;;1.23;;
18693;SDS011;9477;51.414;10.362;2022-08-01T09:22:37;3.40;;;0.83;;
18693;SDS011;9477;51.414;10.362;2022-08-01T09:24:56;4.87;;;1.03;;
18693;SDS011;9477;51.414;10.362;2022-08-01T09:27:01;1.23;;;0.80;;
18693;SDS011;9477;51.414;10.362;2022-08-01T09:29:22;2.07;;;1.17;;
18693;SDS011;9477;51.414;10.362;2022-08-01T09:31:39;1.30;;;0.80;;
18693;SDS011;9477;51.414;10.362;2022-08-01T09:33:48;2.20;;;0.70;;
18693;SDS011;9477;51.414;10.362;2022-08-01T09:35:54;1.67;;;0.80;;
18693;SDS011;9477;51.414;10.362;2022-08-01T09:38:16;2.13;;;0.80;;
18693;SDS011;9477;51.414;10.362;2022-08-01T09:40:20;1.00;;;0.90;;
18693;SDS011;9477;51.414;10.362;2022-08-01T09:42:24;1.20;;;1.10;;
18693;SDS011;9477;51.414;10.362;2022-08-01T09:44:37;0.90;;;0.90;;
18693;SDS011;9477;51.414;10.362;2022-08-01T09:46:48;2.17;;;1.20;;
18693;SDS011;9477;51.414;10.362;2022-08-01T09:48:56;1.70;;;1.03;;
18693;SDS011;9477;51.414;10.362;2022-08-01T09:51:00;2.60;;;1.00;;
18693;SDS011;9477;51.414;10.362;2022-08-01T09:53:09;1.27;;;1.13;;
18693;SDS011;9477;51.414;10.362;2022-08-01T09:55:30;1.77;;;1.30;;
18693;SDS011;9477;51.414;10.362;2022-08-01T09:57:33;2.20;;;1.40;;
18693;SDS011;9477;51.414;10.362;2022-08-01T09:59:38;2.77;;;1.20;;
18693;SDS011;9477;51.414;10.362;2022-08-01T10:01:59;1.37;;;1.10;;
18693;SDS011;9477;51.414;10.362;2022-08-01T10:04:05;1.73;;;1.17;;
18693;SDS011;9477;51.414;10.362;2022-08-01T10:06:20;1.10;;;1.10;;
18693;SDS011;9477;51.414;10.362;2022-08-01T10:08:25;1.17;;;1.10;;
18693;SDS011;9477;51.414;10.362;2022-08-01T10:10:29;4.23;;;1.23;;
18693;SDS011;9477;51.414;10.362;2022-08-01T10:12:33;1.00;;;1.00;;
18693;SDS011;9477;51.414;10.362;2022-08-01T10:14:38;3.70;;;1.00;;
18693;SDS011;9477;51.414;10.362;2022-08-01T10:16:46;1.08;;;0.82;;
18693;SDS011;9477;51.414;10.362;2022-08-01T10:18:56;4.17;;;1.00;;
18693;SDS011;9477;51.414;10.362;2022-08-01T10:21:00;1.07;;;0.90;;
18693;SDS011;9477;51.414;10.362;2022-08-01T10:23:11;1.00;;;1.00;;
18693;SDS011;9477;51.414;10.362;2022-08-01T10:25:16;1.43;;;0.90;;
18693;SDS011;9477;51.414;10.362;2022-08-01T10:27:42;0.90;;;0.90;;
18693;SDS011;9477;51.414;10.362;2022-08-01T10:29:50;1.37;;;0.90;;
18693;SDS011;9477;51.414;10.362;2022-08-01T10:32:10;1.63;;;0.80;;
18693;SDS011;9477;51.414;10.362;2022-08-01T10:34:13;0.80;;;0.80;;
18693;SDS011;9477;51.414;10.362;2022-08-01T10:36:23;0.73;;;0.73;;
18693;SDS011;9477;51.414;10.362;2022-08-01T10:38:28;1.17;;;0.85;;
18693;SDS011;9477;51.414;10.362;2022-08-01T10:40:32;0.90;;;0.90;;
18693;SDS011;9477;51.414;10.362;2022-08-01T10:42:38;0.80;;;0.80;;
18693;SDS011;9477;51.414;10.362;2022-08-01T10:44:42;0.90;;;0.90;;
18693;SDS011;9477;51.414;10.362;2022-08-01T10:46:52;0.85;;;0.70;;
18693;SDS011;9477;51.414;10.362;2022-08-01T10:49:00;1.13;;;0.90;;
18693;SDS011;9477;51.414;10.362;2022-08-01T10:51:07;1.50;;;0.80;;
18693;SDS011;9477;51.414;10.362;2022-08-01T10:53:19;0.93;;;0.93;;
18693;SDS011;9477;51.414;10.362;2022-08-01T10:55:40;0.80;;;0.80;;
18693;SDS011;9477;51.414;10.362;2022-08-01T10:57:48;0.88;;;0.80;;
18693;SDS011;9477;51.414;10.362;2022-08-01T10:59:53;1.13;;;0.70;;
18693;SDS011;9477;51.414;10.362;2022-08-01T11:02:03;0.70;;;0.70;;
18693;SDS011;9477;51.414;10.362;2022-08-01T11:04:08;1.45;;;0.90;;
18693;SDS011;9477;51.414;10.362;2022-08-01T11:06:17;0.68;;;0.68;;
18693;SDS011;9477;51.414;10.362;2022-08-01T11:08:25;2.72;;;1.08;;
18693;SDS011;9477;51.414;10.362;2022-08-01T11:10:30;1.05;;;0.82;;
18693;SDS011;9477;51.414;10.362;2022-08-01T11:12:40;0.82;;;0.73;;
18693;SDS011;9477;51.414;10.362;2022-08-01T11:17:32;0.70;;;0.70;;
18693;SDS011;9477;51.414;10.362;2022-08-01T11:22:09;0.80;;;0.80;;
18693;SDS011;9477;51.414;10.362;2022-08-01T11:24:12;1.23;;;0.70;;
18693;SDS011;9477;51.414;10.362;2022-08-01T11:26:17;0.52;;;0.50;;
18693;SDS011;9477;51.414;10.362;2022-08-01T11:28:30;0.80;;;0.80;;
18693;SDS011;9477;51.414;10.362;2022-08-01T11:30:37;1.00;;;0.90;;
18693;SDS011;9477;51.414;10.362;2022-08-01T11:32:46;0.80;;;0.80;;
18693;SDS011;9477;51.414;10.362;2022-08-01T11:35:09;0.82;;;0.80;;
18693;SDS011;9477;51.414;10.362;2022-08-01T11:37:23;0.80;;;0.80;;
18693;SDS011;9477;51.414;10.362;2022-08-01T11:39:30;0.85;;;0.85;;
18693;SDS011;9477;51.414;10.362;2022-08-01T11:41:39;1.17;;;0.90;;
18693;SDS011;9477;51.414;10.362;2022-08-01T11:43:54;0.80;;;0.80;;
18693;SDS011;9477;51.414;10.362;2022-08-01T11:45:59;0.98;;;0.88;;
18693;SDS011;9477;51.414;10.362;2022-08-01T11:48:04;1.27;;;1.00;;
18693;SDS011;9477;51.414;10.362;2022-08-01T11:50:30;1.17;;;1.10;;
18693;SDS011;9477;51.414;10.362;2022-08-01T11:52:37;1.25;;;1.10;;
18693;SDS011;9477;51.414;10.362;2022-08-01T11:54:43;1.40;;;0.98;;
18693;SDS011;9477;51.414;10.362;2022-08-01T11:56:47;0.98;;;0.93;;
18693;SDS011;9477;51.414;10.362;2022-08-01T11:58:50;2.58;;;0.93;;
18693;SDS011;9477;51.414;10.362;2022-08-01T12:01:01;1.10;;;1.00;;
18693;SDS011;9477;51.414;10.362;2022-08-01T12:03:05;2.38;;;0.95;;
18693;SDS011;9477;51.414;10.362;2022-08-01T12:05:10;1.17;;;0.90;;
18693;SDS011;9477;51.414;10.362;2022-08-01T12:07:16;1.05;;;0.80;;
18693;SDS011;9477;51.414;10.362;2022-08-01T12:09:20;1.50;;;1.00;;
18693;SDS011;9477;51.414;10.362;2022-08-01T12:11:24;0.90;;;0.90;;
18693;SDS011;9477;51.414;10.362;2022-08-01T12:13:40;3.08;;;0.90;;
18693;SDS011;9477;51.414;10.362;2022-08-01T12:15:44;1.95;;;0.90;;
18693;SDS011;9477;51.414;10.362;2022-08-01T12:17:48;1.98;;;0.80;;
18693;SDS011;9477;51.414;10.362;2022-08-01T12:20:00;0.88;;;0.85;;
18693;SDS011;9477;51.414;10.362;2022-08-01T12:22:05;1.05;;;0.95;;
18693;SDS011;9477;51.414;10.362;2022-08-01T12:24:10;0.95;;;0.90;;
18693;SDS011;9477;51.414;10.362;2022-08-01T12:26:13;0.77;;;0.77;;
18693;SDS011;9477;51.414;10.362;2022-08-01T12:28:38;0.70;;;0.70;;
18693;SDS011;9477;51.414;10.362;2022-08-01T12:30:41;0.98;;;0.88;;
18693;SDS011;9477;51.414;10.362;2022-08-01T12:32:45;1.05;;;0.70;;
18693;SDS011;9477;51.414;10.362;2022-08-01T12:34:49;0.65;;;0.65;;
18693;SDS011;9477;51.414;10.362;2022-08-01T12:36:53;1.58;;;0.70;;
18693;SDS011;9477;51.414;10.362;2022-08-01T12:38:57;4.55;;;1.30;;
18693;SDS011;9477;51.414;10.362;2022-08-01T12:41:03;1.10;;;1.00;;
18693;SDS011;9477;51.414;10.362;2022-08-01T12:43:07;1.17;;;0.80;;
18693;SDS011;9477;51.414;10.362;2022-08-01T12:45:29;1.67;;;0.90;;
18693;SDS011;9477;51.414;10.362;2022-08-01T12:47:35;1.92;;;0.90;;